createdAt,value
2023-05-21T00:00:53.665Z,21.00
2023-05-21T00:03:22.011Z,21.63
2023-05-21T00:05:51.181Z,21.43
2023-05-21T00:08:18.981Z,21.67
2023-05-21T00:10:46.719Z,19.70
2023-05-21T00:13:15.005Z,21.00
2023-05-21T00:15:42.847Z,21.27
2023-05-21T00:18:12.893Z,20.70
2023-05-21T00:20:41.930Z,20.50
2023-05-21T00:23:11.186Z,21.20
2023-05-21T00:25:38.975Z,20.30
2023-05-21T00:28:06.835Z,21.03
2023-05-21T00:30:34.653Z,21.40
2023-05-21T00:33:03.195Z,21.20
2023-05-21T00:35:31.564Z,21.27
2023-05-21T00:38:00.171Z,21.00
2023-05-21T00:40:29.471Z,21.40
2023-05-21T00:42:58.421Z,21.37
2023-05-21T00:45:26.221Z,20.60
2023-05-21T00:47:55.555Z,21.43
2023-05-21T00:50:24.587Z,18.97
2023-05-21T00:52:53.383Z,20.10
2023-05-21T00:55:21.327Z,20.60
2023-05-21T00:57:50.508Z,20.30
2023-05-21T01:00:18.715Z,19.80
2023-05-21T01:02:47.105Z,19.87
2023-05-21T01:05:15.618Z,20.70
2023-05-21T01:07:43.551Z,21.40
2023-05-21T01:10:12.137Z,22.13
2023-05-21T01:12:40.864Z,20.40
2023-05-21T01:15:11.123Z,20.80
2023-05-21T01:17:40.038Z,20.63
2023-05-21T01:20:11.099Z,20.33
2023-05-21T01:22:41.803Z,20.30
2023-05-21T01:25:12.206Z,21.27
2023-05-21T01:27:40.815Z,23.00
2023-05-21T01:30:09.414Z,21.20
2023-05-21T01:32:39.764Z,20.97
2023-05-21T01:35:10.826Z,20.43
2023-05-21T01:37:41.598Z,21.67
2023-05-21T01:40:11.793Z,21.90
2023-05-21T01:42:42.983Z,21.57
2023-05-21T01:45:11.544Z,22.10
2023-05-21T01:47:41.169Z,21.93
2023-05-21T01:50:10.887Z,21.23
2023-05-21T01:52:39.324Z,23.00
2023-05-21T01:55:07.528Z,23.20
2023-05-21T01:57:35.498Z,22.00
2023-05-21T02:00:06.338Z,22.90
2023-05-21T02:02:43.226Z,23.00
2023-05-21T02:05:11.380Z,22.77
2023-05-21T02:07:40.370Z,22.77
2023-05-21T02:10:08.969Z,22.60
2023-05-21T02:12:36.840Z,23.63
2023-05-21T02:15:06.901Z,24.33
2023-05-21T02:17:35.377Z,24.23
2023-05-21T02:20:11.533Z,23.97
2023-05-21T02:22:39.989Z,22.73
2023-05-21T02:25:08.874Z,25.20
2023-05-21T02:27:37.741Z,23.37
2023-05-21T02:30:08.425Z,25.53
2023-05-21T02:32:37.740Z,25.10
2023-05-21T02:35:06.000Z,26.13
2023-05-21T02:37:34.290Z,25.50
2023-05-21T02:40:04.133Z,26.07
2023-05-21T02:42:32.562Z,26.00
2023-05-21T02:45:00.383Z,25.40
2023-05-21T02:47:29.875Z,25.23
2023-05-21T02:49:59.633Z,25.87
2023-05-21T02:52:27.680Z,26.50
2023-05-21T02:54:55.662Z,26.97
2023-05-21T02:57:23.509Z,26.70
2023-05-21T02:59:53.125Z,27.43
2023-05-21T03:02:21.329Z,28.43
2023-05-21T03:04:51.037Z,27.70
2023-05-21T03:07:19.763Z,29.20
2023-05-21T03:09:47.758Z,27.53
2023-05-21T03:12:15.624Z,29.10
2023-05-21T03:14:44.105Z,27.90
2023-05-21T03:17:15.387Z,28.80
2023-05-21T03:19:44.284Z,29.37
2023-05-21T03:22:13.565Z,29.77
2023-05-21T03:24:43.492Z,29.00
2023-05-21T03:27:11.442Z,29.70
2023-05-21T03:29:40.162Z,29.67
2023-05-21T03:32:09.028Z,29.10
2023-05-21T03:34:37.325Z,28.17
2023-05-21T03:37:05.184Z,30.30
2023-05-21T03:39:35.437Z,29.43
2023-05-21T03:42:03.782Z,29.97
2023-05-21T03:44:46.887Z,29.67
2023-05-21T03:47:32.764Z,28.73
2023-05-21T03:50:02.354Z,30.10
2023-05-21T03:52:30.467Z,29.43
2023-05-21T03:54:59.952Z,30.87
2023-05-21T03:57:27.763Z,30.73
2023-05-21T03:59:55.946Z,31.40
2023-05-21T04:02:24.227Z,31.40
2023-05-21T04:04:53.512Z,31.27
2023-05-21T04:07:22.248Z,31.47
2023-05-21T04:09:50.941Z,29.40
2023-05-21T04:12:21.151Z,31.23
2023-05-21T04:14:49.110Z,29.90
2023-05-21T04:17:17.255Z,32.33
2023-05-21T04:19:45.610Z,30.40
2023-05-21T04:22:14.786Z,29.60
2023-05-21T04:24:43.735Z,30.93
2023-05-21T04:27:16.750Z,30.60
2023-05-21T04:29:50.627Z,29.20
2023-05-21T04:32:18.892Z,29.13
2023-05-21T04:34:47.268Z,29.70
2023-05-21T04:37:17.772Z,30.47
2023-05-21T04:39:45.547Z,29.80
2023-05-21T04:42:13.337Z,28.90
2023-05-21T04:44:44.669Z,29.40
2023-05-21T04:47:14.948Z,29.80
2023-05-21T04:49:43.251Z,28.50
2023-05-21T04:52:11.452Z,27.77
2023-05-21T04:54:41.810Z,28.23
2023-05-21T04:57:09.897Z,27.03
2023-05-21T04:59:37.792Z,25.67
2023-05-21T05:02:05.925Z,27.30
2023-05-21T05:04:35.161Z,27.53
2023-05-21T05:07:03.275Z,26.73
2023-05-21T05:09:31.686Z,25.33
2023-05-21T05:11:59.866Z,26.17
2023-05-21T05:14:27.713Z,25.80
2023-05-21T05:19:29.150Z,24.80
2023-05-21T05:21:58.692Z,26.07
2023-05-21T05:24:27.361Z,26.10
2023-05-21T05:26:55.287Z,26.30
2023-05-21T05:29:23.061Z,26.07
2023-05-21T05:31:51.180Z,25.90
2023-05-21T05:34:20.022Z,24.60
2023-05-21T05:36:48.895Z,25.53
2023-05-21T05:39:18.679Z,24.17
2023-05-21T05:41:47.849Z,25.03
2023-05-21T05:44:16.292Z,23.70
2023-05-21T05:46:45.526Z,26.33
2023-05-21T05:49:13.632Z,24.90
2023-05-21T05:51:41.621Z,24.60
2023-05-21T05:54:09.598Z,24.17
2023-05-21T05:56:39.194Z,24.47
2023-05-21T05:59:07.441Z,24.43
2023-05-21T06:01:38.520Z,23.30
2023-05-21T06:04:07.055Z,24.63
2023-05-21T06:06:34.912Z,24.30
2023-05-21T06:09:03.001Z,23.93
2023-05-21T06:11:31.097Z,22.47
2023-05-21T06:14:01.406Z,22.80
2023-05-21T06:16:31.562Z,23.97
2023-05-21T06:19:01.121Z,22.77
2023-05-21T06:21:29.170Z,21.90
2023-05-21T06:23:57.459Z,23.43
2023-05-21T06:26:25.206Z,22.10
2023-05-21T06:28:53.894Z,22.70
2023-05-21T06:31:23.155Z,23.47
2023-05-21T06:33:51.270Z,22.00
2023-05-21T06:36:19.194Z,22.00
2023-05-21T06:38:47.949Z,21.70
2023-05-21T06:41:15.824Z,21.20
2023-05-21T06:43:53.877Z,22.17
2023-05-21T06:46:41.818Z,22.33
2023-05-21T06:49:11.882Z,21.90
2023-05-21T06:51:41.609Z,20.90
2023-05-21T06:54:09.931Z,21.07
2023-05-21T06:56:40.639Z,21.50
2023-05-21T06:59:09.232Z,21.80
2023-05-21T07:01:37.069Z,21.10
2023-05-21T07:04:06.650Z,20.90
2023-05-21T07:06:35.916Z,19.90
2023-05-21T07:09:05.928Z,20.37
2023-05-21T07:11:33.970Z,19.80
2023-05-21T07:14:03.830Z,18.03
2023-05-21T07:16:34.277Z,19.33
2023-05-21T07:19:03.022Z,17.30
2023-05-21T07:21:32.167Z,18.10
2023-05-21T07:24:00.199Z,17.93
2023-05-21T07:26:28.044Z,18.50
2023-05-21T07:28:56.284Z,18.07
2023-05-21T07:31:25.243Z,16.20
2023-05-21T07:33:53.884Z,16.03
2023-05-21T07:36:26.107Z,15.57
2023-05-21T07:38:55.255Z,15.77
2023-05-21T07:41:23.643Z,16.23
2023-05-21T07:43:52.441Z,15.90
2023-05-21T07:46:21.102Z,16.80
2023-05-21T07:48:53.827Z,15.90
2023-05-21T07:51:21.729Z,16.27
2023-05-21T07:53:49.708Z,15.50
2023-05-21T07:56:22.950Z,15.40
2023-05-21T07:58:50.898Z,15.03
2023-05-21T08:01:19.135Z,16.13
2023-05-21T08:03:49.137Z,15.40
2023-05-21T08:06:17.008Z,15.80
2023-05-21T08:08:45.817Z,16.07
2023-05-21T08:11:13.619Z,14.93
2023-05-21T08:13:42.899Z,14.93
2023-05-21T08:16:14.372Z,14.00
2023-05-21T08:18:42.342Z,14.17
2023-05-21T08:21:10.166Z,14.60
2023-05-21T08:23:39.217Z,14.30
2023-05-21T08:26:07.149Z,13.47
2023-05-21T08:28:39.229Z,14.13
2023-05-21T08:31:08.795Z,12.93
2023-05-21T08:33:38.422Z,14.00
2023-05-21T08:36:07.812Z,13.57
2023-05-21T08:38:49.519Z,12.57
2023-05-21T08:41:24.663Z,13.03
2023-05-21T08:43:56.382Z,12.30
2023-05-21T08:46:27.048Z,12.27
2023-05-21T08:48:55.947Z,12.10
2023-05-21T08:51:25.534Z,12.13
2023-05-21T08:53:54.636Z,11.13
2023-05-21T08:56:22.735Z,12.63
2023-05-21T08:58:55.088Z,12.80
2023-05-21T09:01:26.995Z,11.83
2023-05-21T09:04:16.266Z,12.37
2023-05-21T09:06:48.132Z,11.47
2023-05-21T09:09:26.132Z,12.70
2023-05-21T09:11:54.002Z,12.30
2023-05-21T09:14:22.503Z,11.60
2023-05-21T09:17:06.899Z,12.23
2023-05-21T09:19:34.897Z,11.70
2023-05-21T09:22:04.096Z,11.30
2023-05-21T09:24:36.470Z,10.80
2023-05-21T09:27:07.649Z,11.07
2023-05-21T09:29:35.877Z,11.07
2023-05-21T09:32:08.908Z,10.63
2023-05-21T09:34:40.654Z,9.77
2023-05-21T09:37:19.956Z,10.53
2023-05-21T09:39:55.493Z,10.87
2023-05-21T09:42:23.537Z,10.10
2023-05-21T09:44:51.851Z,10.13
2023-05-21T09:47:24.035Z,10.13
2023-05-21T09:49:52.043Z,9.67
2023-05-21T09:52:27.834Z,9.40
2023-05-21T09:54:55.565Z,9.27
2023-05-21T09:57:26.602Z,9.90
2023-05-21T09:59:54.600Z,9.03
2023-05-21T10:02:23.341Z,9.13
2023-05-21T10:04:54.339Z,10.10
2023-05-21T10:07:25.721Z,10.40
2023-05-21T10:09:54.258Z,12.27
2023-05-21T10:12:23.661Z,10.10
2023-05-21T10:14:53.228Z,12.90
2023-05-21T10:17:21.789Z,9.87
2023-05-21T10:19:49.727Z,10.60
2023-05-21T10:22:19.563Z,10.57
2023-05-21T10:24:47.749Z,11.07
2023-05-21T10:27:15.678Z,10.10
2023-05-21T10:29:45.113Z,9.77
2023-05-21T10:32:14.225Z,10.10
2023-05-21T10:34:42.932Z,10.90
2023-05-21T10:37:11.825Z,9.70
2023-05-21T10:39:41.202Z,8.77
2023-05-21T10:42:17.245Z,9.03
2023-05-21T10:44:50.948Z,9.53
2023-05-21T10:47:33.207Z,9.00
2023-05-21T10:50:12.846Z,8.20
2023-05-21T10:52:51.739Z,9.20
2023-05-21T10:55:29.282Z,8.73
2023-05-21T10:58:12.236Z,8.67
2023-05-21T11:00:40.404Z,7.40
2023-05-21T11:03:08.661Z,7.20
2023-05-21T11:05:40.358Z,7.90
2023-05-21T11:08:19.792Z,8.10
2023-05-21T11:10:52.199Z,8.30
2023-05-21T11:13:21.587Z,7.20
2023-05-21T11:16:08.431Z,8.50
2023-05-21T11:19:06.107Z,7.67
2023-05-21T11:21:37.063Z,7.47
2023-05-21T11:24:08.314Z,7.37
2023-05-21T11:26:55.806Z,7.83
2023-05-21T11:29:32.483Z,7.27
2023-05-21T11:32:03.098Z,7.17
2023-05-21T11:34:39.398Z,7.37
2023-05-21T11:37:42.044Z,6.30
2023-05-21T11:40:25.754Z,7.40
2023-05-21T11:42:55.000Z,7.53
2023-05-21T11:45:25.035Z,7.10
2023-05-21T11:47:53.610Z,6.70
2023-05-21T11:50:22.127Z,6.67
2023-05-21T11:52:50.559Z,7.07
2023-05-21T11:55:22.502Z,6.80
2023-05-21T11:57:53.452Z,6.93
2023-05-21T12:00:21.786Z,6.37
2023-05-21T12:02:51.671Z,7.90
2023-05-21T12:05:20.069Z,6.73
2023-05-21T12:07:49.892Z,6.60
2023-05-21T12:10:18.183Z,6.87
2023-05-21T12:12:53.835Z,6.63
2023-05-21T12:15:24.491Z,7.30
2023-05-21T12:17:54.076Z,7.63
2023-05-21T12:20:22.195Z,7.10
2023-05-21T12:22:50.285Z,7.43
2023-05-21T12:25:19.899Z,7.60
2023-05-21T12:27:48.619Z,7.40
2023-05-21T12:30:16.489Z,8.33
2023-05-21T12:32:45.264Z,7.97
2023-05-21T12:35:23.779Z,7.97
2023-05-21T12:37:52.543Z,7.37
2023-05-21T12:40:21.008Z,8.13
2023-05-21T12:42:49.290Z,7.50
2023-05-21T12:45:19.022Z,7.67
2023-05-21T12:47:49.941Z,7.20
2023-05-21T12:50:21.409Z,7.77
2023-05-21T12:52:50.774Z,7.30
2023-05-21T12:55:18.482Z,7.80
2023-05-21T12:57:46.901Z,7.67
2023-05-21T13:00:15.110Z,6.43
2023-05-21T13:02:45.071Z,7.37
2023-05-21T13:05:17.467Z,7.20
2023-05-21T13:07:46.887Z,7.27
2023-05-21T13:10:17.551Z,7.20
2023-05-21T13:12:45.988Z,7.17
2023-05-21T13:15:13.960Z,7.60
2023-05-21T13:17:41.836Z,7.63
2023-05-21T13:20:12.076Z,8.47
2023-05-21T13:22:42.734Z,7.43
2023-05-21T13:25:11.440Z,7.00
2023-05-21T13:27:40.612Z,7.87
2023-05-21T13:30:09.740Z,7.50
2023-05-21T13:32:37.892Z,7.63
2023-05-21T13:35:06.218Z,8.73
2023-05-21T13:37:36.396Z,7.40
2023-05-21T13:40:05.217Z,7.60
2023-05-21T13:42:33.007Z,7.30
2023-05-21T13:45:02.230Z,7.17
2023-05-21T13:47:30.092Z,7.37
2023-05-21T13:49:57.868Z,7.50
2023-05-21T13:52:26.027Z,7.63
2023-05-21T13:54:53.974Z,7.87
2023-05-21T13:57:22.166Z,7.00
2023-05-21T13:59:51.100Z,8.47
2023-05-21T14:02:20.306Z,7.90
2023-05-21T14:04:48.422Z,7.90
2023-05-21T14:07:16.785Z,8.07
2023-05-21T14:09:44.550Z,7.20
2023-05-21T14:12:12.438Z,6.90
2023-05-21T14:14:40.441Z,6.97
2023-05-21T14:17:08.231Z,7.60
2023-05-21T14:19:38.272Z,9.30
2023-05-21T14:22:06.458Z,7.87
2023-05-21T14:24:35.474Z,7.47
2023-05-21T14:27:03.408Z,7.80
2023-05-21T14:29:33.184Z,7.43
2023-05-21T14:32:01.422Z,7.23
2023-05-21T14:34:29.484Z,8.13
2023-05-21T14:36:58.966Z,7.73
2023-05-21T14:39:27.012Z,8.10
2023-05-21T14:41:55.346Z,7.50
2023-05-21T14:44:23.165Z,7.63
2023-05-21T14:46:51.533Z,7.90
2023-05-21T14:49:19.305Z,7.13
2023-05-21T14:51:47.594Z,7.50
2023-05-21T14:54:18.397Z,7.30
2023-05-21T14:56:46.547Z,7.03
2023-05-21T14:59:14.438Z,8.70
2023-05-21T15:01:42.592Z,7.03
2023-05-21T15:04:10.714Z,7.23
2023-05-21T15:06:38.855Z,7.20
2023-05-21T15:09:06.754Z,7.70
2023-05-21T15:11:36.012Z,7.20
2023-05-21T15:14:04.915Z,6.30
2023-05-21T15:16:33.046Z,7.90
2023-05-21T15:19:00.934Z,7.20
2023-05-21T15:21:28.668Z,7.10
2023-05-21T15:23:56.953Z,6.30
2023-05-21T15:26:25.485Z,8.00
2023-05-21T15:28:55.554Z,6.60
2023-05-21T15:31:24.072Z,7.27
2023-05-21T15:33:51.889Z,7.13
2023-05-21T15:36:19.888Z,7.40
2023-05-21T15:38:47.632Z,7.70
2023-05-21T15:41:18.760Z,7.00
2023-05-21T15:43:47.163Z,7.80
2023-05-21T15:46:16.538Z,7.40
2023-05-21T15:48:44.318Z,7.27
2023-05-21T15:51:14.948Z,6.80
2023-05-21T15:53:43.259Z,6.60
2023-05-21T15:56:11.301Z,6.13
2023-05-21T15:58:39.637Z,7.03
2023-05-21T16:01:07.613Z,5.80
2023-05-21T16:03:37.141Z,6.00
2023-05-21T16:06:06.469Z,6.60
2023-05-21T16:08:34.332Z,6.50
2023-05-21T16:11:03.592Z,6.37
2023-05-21T16:13:31.588Z,6.40
2023-05-21T16:15:59.826Z,6.13
2023-05-21T16:18:27.711Z,5.87
2023-05-21T16:20:57.264Z,6.30
2023-05-21T16:23:25.763Z,6.30
2023-05-21T16:25:53.711Z,6.40
2023-05-21T16:28:24.586Z,6.70
2023-05-21T16:30:52.532Z,6.50
2023-05-21T16:33:20.479Z,6.73
2023-05-21T16:35:48.808Z,6.00
2023-05-21T16:38:18.600Z,6.10
2023-05-21T16:40:47.186Z,5.90
2023-05-21T16:43:15.621Z,6.23
2023-05-21T16:45:44.598Z,6.27
2023-05-21T16:48:12.928Z,6.30
2023-05-21T16:50:41.200Z,7.10
2023-05-21T16:53:09.911Z,6.80
2023-05-21T16:55:39.703Z,7.10
2023-05-21T16:58:09.326Z,6.80
2023-05-21T17:00:37.765Z,6.10
2023-05-21T17:03:06.933Z,6.63
2023-05-21T17:05:35.216Z,6.20
2023-05-21T17:08:03.820Z,5.70
2023-05-21T17:10:33.999Z,6.50
2023-05-21T17:13:13.956Z,7.50
2023-05-21T17:15:49.219Z,6.30
2023-05-21T17:18:17.215Z,5.70
2023-05-21T17:20:45.045Z,6.20
2023-05-21T17:23:12.853Z,6.37
2023-05-21T17:25:41.325Z,6.40
2023-05-21T17:28:11.155Z,5.97
2023-05-21T17:30:39.107Z,6.90
2023-05-21T17:33:07.742Z,6.80
2023-05-21T17:35:35.962Z,6.77
2023-05-21T17:38:03.833Z,6.07
2023-05-21T17:40:33.784Z,7.00
2023-05-21T17:43:03.084Z,5.97
2023-05-21T17:45:32.523Z,7.13
2023-05-21T17:48:00.972Z,5.43
2023-05-21T17:50:29.187Z,6.53
2023-05-21T17:52:57.280Z,6.00
2023-05-21T17:55:25.027Z,7.20
2023-05-21T17:57:52.895Z,6.37
2023-05-21T18:00:20.982Z,7.67
2023-05-21T18:02:50.980Z,8.80
2023-05-21T18:05:18.783Z,7.20
2023-05-21T18:07:46.611Z,6.50
2023-05-21T18:10:15.587Z,6.77
2023-05-21T18:12:43.772Z,6.40
2023-05-21T18:15:13.072Z,6.50
2023-05-21T18:17:41.463Z,5.93
2023-05-21T18:20:11.331Z,6.17
2023-05-21T18:22:39.119Z,5.70
2023-05-21T18:25:07.570Z,6.30
2023-05-21T18:27:35.449Z,6.10
2023-05-21T18:30:06.171Z,6.70
2023-05-21T18:32:35.917Z,6.87
2023-05-21T18:35:03.676Z,6.53
2023-05-21T18:37:32.923Z,6.90
2023-05-21T18:40:00.818Z,6.70
2023-05-21T18:42:29.123Z,6.37
2023-05-21T18:44:56.996Z,6.60
2023-05-21T18:47:25.307Z,6.80
2023-05-21T18:49:54.219Z,6.27
2023-05-21T18:52:22.074Z,7.33
2023-05-21T18:54:51.499Z,6.97
2023-05-21T18:57:19.482Z,8.37
2023-05-21T18:59:47.320Z,6.67
2023-05-21T19:02:15.380Z,6.90
2023-05-21T19:04:43.239Z,7.20
2023-05-21T19:07:11.014Z,6.77
2023-05-21T19:09:38.988Z,6.77
2023-05-21T19:12:08.981Z,6.30
2023-05-21T19:14:36.928Z,6.23
2023-05-21T19:17:05.011Z,7.70
2023-05-21T19:19:32.803Z,6.70
2023-05-21T19:22:00.649Z,5.70
2023-05-21T19:24:29.004Z,6.77
2023-05-21T19:26:56.756Z,6.33
2023-05-21T19:29:27.199Z,6.20
2023-05-21T19:31:58.576Z,8.07
2023-05-21T19:34:26.772Z,9.13
2023-05-21T19:36:55.252Z,6.40
2023-05-21T19:39:23.208Z,6.33
2023-05-21T19:41:51.747Z,7.00
2023-05-21T19:44:19.751Z,6.97
2023-05-21T19:46:49.908Z,6.33
2023-05-21T19:49:19.847Z,6.83
2023-05-21T19:51:49.476Z,7.20
2023-05-21T19:54:18.541Z,7.17
2023-05-21T19:56:46.339Z,6.30
2023-05-21T19:59:14.131Z,7.20
2023-05-21T20:01:43.507Z,7.07
2023-05-21T20:04:12.851Z,7.03
2023-05-21T20:06:40.956Z,6.87
2023-05-21T20:09:10.750Z,7.07
2023-05-21T20:11:38.739Z,6.90
2023-05-21T20:14:06.638Z,6.50
2023-05-21T20:16:34.587Z,6.73
2023-05-21T20:19:03.872Z,7.20
2023-05-21T20:21:33.429Z,6.17
2023-05-21T20:24:03.595Z,6.77
2023-05-21T20:26:34.830Z,7.33
2023-05-21T20:29:03.167Z,6.70
2023-05-21T20:31:31.062Z,7.27
2023-05-21T20:33:59.144Z,7.10
2023-05-21T20:36:27.445Z,7.13
2023-05-21T20:38:57.402Z,6.43
2023-05-21T20:41:25.514Z,6.60
2023-05-21T20:43:54.694Z,7.07
2023-05-21T20:46:22.693Z,7.30
2023-05-21T20:48:50.458Z,7.03
2023-05-21T20:51:18.838Z,7.40
2023-05-21T20:53:46.972Z,6.40
2023-05-21T20:56:19.888Z,7.10
2023-05-21T20:58:55.892Z,7.10
2023-05-21T21:01:23.831Z,6.63
2023-05-21T21:03:51.647Z,6.60
2023-05-21T21:06:20.150Z,6.30
2023-05-21T21:08:50.147Z,6.40
2023-05-21T21:11:19.564Z,6.30
2023-05-21T21:13:47.620Z,6.67
2023-05-21T21:16:15.802Z,6.53
2023-05-21T21:18:43.630Z,5.93
2023-05-21T21:21:12.867Z,6.50
2023-05-21T21:23:40.705Z,7.40
2023-05-21T21:26:08.706Z,7.80
2023-05-21T21:28:38.210Z,8.10
2023-05-21T21:31:05.940Z,7.10
2023-05-21T21:33:33.775Z,7.13
2023-05-21T21:36:01.935Z,7.13
2023-05-21T21:38:29.867Z,7.20
2023-05-21T21:40:57.955Z,7.10
2023-05-21T21:43:26.474Z,6.50
2023-05-21T21:45:57.206Z,7.10
2023-05-21T21:48:25.409Z,6.90
2023-05-21T21:50:53.941Z,7.43
2023-05-21T21:53:22.000Z,6.93
2023-05-21T21:55:50.841Z,7.33
2023-05-21T21:58:18.893Z,7.20
2023-05-21T22:00:46.951Z,7.70
2023-05-21T22:03:16.461Z,7.20
2023-05-21T22:05:44.571Z,6.70
2023-05-21T22:08:12.332Z,6.77
2023-05-21T22:10:41.194Z,7.03
2023-05-21T22:13:09.616Z,6.97
2023-05-21T22:15:38.431Z,6.57
2023-05-21T22:18:09.623Z,6.13
2023-05-21T22:20:39.293Z,6.60
2023-05-21T22:23:13.177Z,7.10
2023-05-21T22:25:42.159Z,6.43
2023-05-21T22:28:10.158Z,6.50
2023-05-21T22:30:39.802Z,6.80
2023-05-21T22:33:07.861Z,6.03
2023-05-21T22:39:50.459Z,6.00
2023-05-21T22:42:18.530Z,6.80
2023-05-21T22:44:46.246Z,5.77
2023-05-21T22:47:14.702Z,6.00
2023-05-21T22:49:42.429Z,6.33
2023-05-21T22:52:12.047Z,5.40
2023-05-21T22:54:40.316Z,6.63
2023-05-21T22:57:09.554Z,6.20
2023-05-21T22:59:37.774Z,6.57
2023-05-21T23:02:07.026Z,7.50
2023-05-21T23:04:43.277Z,7.30
2023-05-21T23:07:12.626Z,6.70
2023-05-21T23:09:41.077Z,7.30
2023-05-21T23:12:10.845Z,5.97
2023-05-21T23:14:39.231Z,7.53
2023-05-21T23:17:07.433Z,6.60
2023-05-21T23:19:35.618Z,6.73
2023-05-21T23:22:04.017Z,6.20
2023-05-21T23:24:34.966Z,6.20
2023-05-21T23:27:03.754Z,5.87
2023-05-21T23:29:32.853Z,8.13
2023-05-21T23:32:01.701Z,7.30
2023-05-21T23:34:32.444Z,6.23
2023-05-21T23:37:00.756Z,7.23
2023-05-21T23:39:28.605Z,5.97
2023-05-21T23:41:56.715Z,5.63
2023-05-21T23:44:24.491Z,5.43
2023-05-21T23:46:53.779Z,5.33
2023-05-21T23:49:21.686Z,5.90
2023-05-21T23:51:50.975Z,5.87
2023-05-21T23:54:20.536Z,5.63
2023-05-21T23:56:48.686Z,6.93
2023-05-21T23:59:18.379Z,6.70
